Time;durP1;ratioP1;P1;durP2;ratioP2;P2;SDS_P1;SDS_P2;PMS_P1;PMS_P2;Temp;Humidity;BMP_temperature;BMP_pressure;BME280_temperature;BME280_humidity;BME280_pressure;Samples;Min_cycle;Max_cycle;Signal;HPM_P1;HPM_P2
2022/04/15 00:01:17;;;;;;;13.93;7.80;;;13.70;99.90;;;;;;5071712;28;20032;-72
2022/04/15 00:03:43;;;;;;;12.90;7.72;;;13.60;99.90;;;;;;5071585;28;20111;-72
2022/04/15 00:06:10;;;;;;;13.82;7.50;;;13.60;99.90;;;;;;5071700;28;20104;-73
2022/04/15 00:08:37;;;;;;;15.05;7.40;;;13.50;99.90;;;;;;5071479;28;20032;-72
2022/04/15 00:11:03;;;;;;;13.70;7.20;;;13.50;99.90;;;;;;5071428;28;20039;-73
2022/04/15 00:13:31;;;;;;;13.75;7.40;;;13.50;99.90;;;;;;5071345;28;20028;-72
2022/04/15 00:15:58;;;;;;;17.63;8.00;;;13.40;99.90;;;;;;5071397;28;20465;-72
2022/04/15 00:18:25;;;;;;;14.07;7.85;;;13.40;99.90;;;;;;5071531;28;20310;-72
2022/04/15 00:20:54;;;;;;;12.70;6.85;;;13.30;99.90;;;;;;5053419;28;20163;-73
2022/04/15 00:23:22;;;;;;;13.30;7.13;;;13.30;99.90;;;;;;5071323;28;20028;-72
2022/04/15 00:25:52;;;;;;;12.77;7.50;;;13.20;99.90;;;;;;5053265;28;20025;-73
2022/04/15 00:28:19;;;;;;;17.95;8.30;;;13.20;99.90;;;;;;5053176;28;20032;-73
2022/04/15 00:30:45;;;;;;;14.13;8.30;;;13.20;99.90;;;;;;5071329;28;20039;-73
2022/04/15 00:33:11;;;;;;;15.10;7.90;;;13.10;99.90;;;;;;5053185;28;20028;-72
2022/04/15 00:35:37;;;;;;;16.02;7.90;;;13.10;99.90;;;;;;5071028;28;20433;-73
2022/04/15 00:38:03;;;;;;;16.10;8.02;;;13.00;99.90;;;;;;5070909;28;20037;-73
2022/04/15 00:40:29;;;;;;;15.70;7.43;;;13.00;99.90;;;;;;5052998;28;20036;-72
2022/04/15 00:42:55;;;;;;;16.48;8.60;;;13.00;99.90;;;;;;5070870;28;20024;-72
2022/04/15 00:45:21;;;;;;;16.55;8.35;;;13.00;99.90;;;;;;5053131;28;20123;-73
2022/04/15 00:47:53;;;;;;;13.30;7.60;;;13.00;99.90;;;;;;5053056;28;20119;-72
2022/04/15 00:50:30;;;;;;;13.70;8.07;;;12.90;99.90;;;;;;5070995;28;20042;-72
2022/04/15 00:52:58;;;;;;;15.27;7.57;;;12.90;99.90;;;;;;5070808;28;20280;-72
2022/04/15 00:55:25;;;;;;;14.80;7.90;;;12.90;99.90;;;;;;5052826;28;20519;-72
2022/04/15 00:57:58;;;;;;;15.52;8.23;;;13.00;99.90;;;;;;5052767;28;20033;-72
2022/04/15 01:00:26;;;;;;;15.50;8.15;;;13.00;99.90;;;;;;5070774;28;20037;-73
2022/04/15 01:02:52;;;;;;;15.85;8.05;;;12.90;99.90;;;;;;5070927;28;20049;-73
2022/04/15 01:05:19;;;;;;;14.07;8.43;;;13.00;99.90;;;;;;5070955;28;20020;-72
2022/04/15 01:07:55;;;;;;;17.15;9.30;;;13.00;99.90;;;;;;5070528;28;20481;-72
2022/04/15 01:10:21;;;;;;;14.98;9.30;;;13.00;99.90;;;;;;5071003;28;20024;-72
2022/04/15 01:12:54;;;;;;;16.38;8.95;;;13.00;99.90;;;;;;5052597;28;20121;-73
2022/04/15 01:15:27;;;;;;;13.45;8.73;;;13.00;99.90;;;;;;5070778;28;20397;-72
2022/04/15 01:17:53;;;;;;;14.05;8.90;;;13.00;99.90;;;;;;5071009;28;20029;-73
2022/04/15 01:20:20;;;;;;;16.05;8.95;;;13.00;99.90;;;;;;5070579;28;20095;-72
2022/04/15 01:22:49;;;;;;;14.68;9.02;;;13.00;99.90;;;;;;5052504;28;20623;-73
2022/04/15 01:25:17;;;;;;;17.70;9.35;;;13.00;99.90;;;;;;5070788;28;20103;-72
2022/04/15 01:27:48;;;;;;;14.40;8.98;;;13.00;99.90;;;;;;5052476;28;20103;-73
2022/04/15 01:30:19;;;;;;;16.40;9.82;;;13.00;99.90;;;;;;5070535;28;20635;-73
2022/04/15 01:32:46;;;;;;;16.27;9.68;;;12.90;99.90;;;;;;5070439;28;20069;-72
2022/04/15 01:35:14;;;;;;;14.57;8.90;;;12.90;99.90;;;;;;5052802;28;20028;-72
2022/04/15 01:37:41;;;;;;;16.63;9.15;;;12.90;99.90;;;;;;5070213;28;20036;-73
2022/04/15 01:40:09;;;;;;;15.30;9.38;;;12.80;99.90;;;;;;5070537;28;20115;-72
2022/04/15 01:42:36;;;;;;;16.48;9.65;;;12.80;99.90;;;;;;5070467;28;20029;-72
2022/04/15 01:45:04;;;;;;;15.93;8.98;;;12.80;99.90;;;;;;5070532;28;20424;-73
2022/04/15 01:47:30;;;;;;;15.77;9.43;;;12.70;99.90;;;;;;5052370;28;20064;-72
2022/04/15 01:49:56;;;;;;;16.37;8.80;;;12.70;99.90;;;;;;5070580;28;20025;-73
2022/04/15 01:52:22;;;;;;;14.77;9.23;;;12.70;99.90;;;;;;5070465;28;20036;-72
2022/04/15 01:54:48;;;;;;;15.50;8.75;;;12.60;99.90;;;;;;5072174;28;20074;-72
2022/04/15 01:57:15;;;;;;;16.63;8.50;;;12.50;99.90;;;;;;5073784;28;20115;-73
2022/04/15 01:59:41;;;;;;;16.80;9.63;;;12.50;99.90;;;;;;5056280;28;20392;-72
2022/04/15 02:02:08;;;;;;;17.17;9.47;;;12.50;99.90;;;;;;5056347;28;20370;-73
2022/04/15 02:04:34;;;;;;;15.65;9.10;;;12.50;99.90;;;;;;5074007;28;20335;-72
2022/04/15 02:07:01;;;;;;;14.47;9.80;;;12.50;99.90;;;;;;5055737;28;20030;-72
2022/04/15 02:09:27;;;;;;;19.42;10.02;;;12.50;99.90;;;;;;5074068;28;20094;-72
2022/04/15 02:11:53;;;;;;;16.00;9.30;;;12.40;99.90;;;;;;5073728;28;20550;-73
2022/04/15 02:14:20;;;;;;;16.83;9.40;;;12.40;99.90;;;;;;5073813;28;20464;-73
2022/04/15 02:16:47;;;;;;;17.73;9.47;;;12.40;99.90;;;;;;5073774;28;20366;-73
2022/04/15 02:19:13;;;;;;;14.70;9.83;;;12.40;99.90;;;;;;5073613;28;20032;-73
2022/04/15 02:21:39;;;;;;;18.27;9.63;;;12.30;99.90;;;;;;5073524;28;20025;-73
2022/04/15 02:24:06;;;;;;;15.00;9.43;;;12.30;99.90;;;;;;5055741;28;20035;-73
2022/04/15 02:26:32;;;;;;;18.87;10.23;;;12.30;99.90;;;;;;5095456;22;20135;-82
2022/04/15 02:28:58;;;;;;;15.50;9.60;;;12.30;99.90;;;;;;5073100;28;20480;-82
2022/04/15 02:31:24;;;;;;;15.73;9.63;;;12.20;99.90;;;;;;5073455;28;20058;-82
2022/04/15 02:33:50;;;;;;;19.80;9.60;;;12.20;99.90;;;;;;5055709;28;20055;-82
2022/04/15 02:36:16;;;;;;;18.03;10.03;;;12.20;99.90;;;;;;5073109;28;20564;-83
2022/04/15 02:38:42;;;;;;;16.20;9.20;;;12.20;99.90;;;;;;5072999;28;20036;-82
2022/04/15 02:41:08;;;;;;;15.07;9.57;;;12.30;99.90;;;;;;5072912;28;20038;-83
2022/04/15 02:43:37;;;;;;;17.23;10.50;;;12.30;99.90;;;;;;5073077;28;20466;-82
2022/04/15 02:46:05;;;;;;;14.98;9.55;;;12.20;99.90;;;;;;5055061;28;20039;-82
2022/04/15 02:48:31;;;;;;;14.07;9.63;;;12.20;99.90;;;;;;5054890;28;20392;-83
2022/04/15 02:50:59;;;;;;;16.13;9.83;;;12.20;99.90;;;;;;5073053;28;20098;-82
2022/04/15 02:53:25;;;;;;;15.90;9.97;;;12.20;99.90;;;;;;5054826;28;20546;-82
2022/04/15 02:55:51;;;;;;;14.60;9.67;;;12.10;99.90;;;;;;5072675;28;20021;-82
2022/04/15 02:58:16;;;;;;;21.63;10.70;;;12.10;99.90;;;;;;5072361;28;20473;-83
2022/04/15 03:00:42;;;;;;;20.00;10.20;;;12.20;99.90;;;;;;5072822;28;20299;-83
2022/04/15 03:03:08;;;;;;;16.70;10.37;;;12.20;99.90;;;;;;5072600;28;20557;-83
2022/04/15 03:05:33;;;;;;;16.30;9.87;;;12.20;99.90;;;;;;5053980;28;20025;-83
2022/04/15 03:07:59;;;;;;;14.70;10.27;;;12.20;99.90;;;;;;5072105;28;20020;-82
2022/04/15 03:10:26;;;;;;;18.80;10.67;;;12.20;99.90;;;;;;5054526;28;20064;-82
2022/04/15 03:12:51;;;;;;;16.07;10.03;;;12.20;99.90;;;;;;5072227;28;20056;-82
2022/04/15 03:15:17;;;;;;;19.33;10.73;;;12.20;99.90;;;;;;5072349;28;20487;-83
2022/04/15 03:17:43;;;;;;;16.87;10.70;;;12.10;99.90;;;;;;5072060;28;20024;-82
2022/04/15 03:20:09;;;;;;;16.93;10.43;;;12.10;99.90;;;;;;5072279;28;20034;-82
2022/04/15 03:22:43;;;;;;;16.50;10.63;;;12.10;99.90;;;;;;5072234;28;20455;-82
2022/04/15 03:25:11;;;;;;;15.03;10.30;;;12.10;99.90;;;;;;5054335;28;20028;-82
2022/04/15 03:27:37;;;;;;;18.30;10.23;;;12.10;99.90;;;;;;5071963;28;20103;-82
2022/04/15 03:30:04;;;;;;;16.30;10.53;;;12.10;99.90;;;;;;5072235;28;20107;-83
2022/04/15 03:32:30;;;;;;;17.67;10.67;;;12.10;99.90;;;;;;5071900;28;20484;-82
2022/04/15 03:34:57;;;;;;;16.67;10.83;;;12.10;99.90;;;;;;5071781;28;20040;-82
2022/04/15 03:37:23;;;;;;;14.60;10.13;;;12.10;99.90;;;;;;5071588;28;20033;-83
2022/04/15 03:39:50;;;;;;;18.50;10.73;;;12.10;99.90;;;;;;5071900;28;20112;-82
2022/04/15 03:42:15;;;;;;;20.33;11.03;;;12.00;99.90;;;;;;5053789;28;20563;-82
2022/04/15 03:44:41;;;;;;;21.17;10.40;;;12.10;99.90;;;;;;5071921;28;20107;-82
2022/04/15 03:47:07;;;;;;;16.60;10.60;;;12.00;99.90;;;;;;5071488;28;20040;-82
2022/04/15 03:49:33;;;;;;;18.63;10.87;;;12.00;99.90;;;;;;5071719;28;20029;-82
2022/04/15 03:52:00;;;;;;;18.53;11.03;;;12.00;99.90;;;;;;5071460;28;20036;-82
2022/04/15 03:54:26;;;;;;;14.80;9.63;;;11.90;99.90;;;;;;5071584;28;20032;-82
2022/04/15 03:56:52;;;;;;;19.67;11.13;;;11.80;99.90;;;;;;5071205;28;20140;-83
2022/04/15 03:59:18;;;;;;;19.67;11.23;;;11.80;99.90;;;;;;5071457;28;20036;-82
2022/04/15 04:01:44;;;;;;;18.43;10.50;;;11.80;99.90;;;;;;5071271;28;20373;-82
2022/04/15 04:04:10;;;;;;;15.87;10.40;;;11.80;99.90;;;;;;5071437;28;20101;-83
2022/04/15 04:06:37;;;;;;;16.33;10.53;;;11.80;99.90;;;;;;5071050;28;20416;-82
2022/04/15 04:09:02;;;;;;;17.93;11.60;;;11.80;99.90;;;;;;5053401;28;20109;-83
2022/04/15 04:11:28;;;;;;;18.03;10.73;;;11.70;99.90;;;;;;5071268;28;20064;-83
2022/04/15 04:13:54;;;;;;;19.77;11.13;;;11.80;99.90;;;;;;5071375;28;20101;-83
2022/04/15 04:16:20;;;;;;;18.17;11.40;;;11.80;99.90;;;;;;5071165;28;20761;-83
2022/04/15 04:18:46;;;;;;;17.93;10.50;;;11.70;99.90;;;;;;5070531;28;20028;-83
2022/04/15 04:21:12;;;;;;;16.83;10.07;;;11.60;99.90;;;;;;5070980;28;20032;-83
2022/04/15 04:23:39;;;;;;;17.27;10.50;;;11.70;99.90;;;;;;5053130;28;20028;-83
2022/04/15 04:26:05;;;;;;;17.47;10.60;;;11.70;99.90;;;;;;5053092;28;20386;-82
2022/04/15 04:28:32;;;;;;;17.20;10.53;;;11.70;99.90;;;;;;5070994;28;20114;-82
2022/04/15 04:30:58;;;;;;;17.70;11.23;;;11.70;99.90;;;;;;5071240;28;20029;-83
2022/04/15 04:33:24;;;;;;;17.60;10.87;;;11.70;99.90;;;;;;5070858;28;20093;-82
2022/04/15 04:35:50;;;;;;;15.23;9.07;;;11.60;99.90;;;;;;5052776;28;20028;-82
2022/04/15 04:38:16;;;;;;;19.53;10.80;;;11.60;99.90;;;;;;5070799;28;20032;-82
2022/04/15 04:40:42;;;;;;;20.93;11.57;;;11.50;99.90;;;;;;5052908;28;20036;-82
2022/04/15 04:43:09;;;;;;;14.67;10.43;;;11.50;99.90;;;;;;5070706;28;20033;-82
2022/04/15 04:45:36;;;;;;;18.43;11.53;;;11.50;99.90;;;;;;5070905;28;20056;-82
2022/04/15 04:48:03;;;;;;;16.03;10.27;;;11.60;99.90;;;;;;5070670;28;20028;-83
2022/04/15 04:50:30;;;;;;;17.60;10.87;;;11.60;99.90;;;;;;5070708;28;20423;-82
2022/04/15 04:52:56;;;;;;;16.47;10.70;;;11.70;99.90;;;;;;5070697;28;20033;-82
2022/04/15 04:55:22;;;;;;;16.67;11.53;;;11.70;99.90;;;;;;5070721;28;20039;-83
2022/04/15 04:57:48;;;;;;;18.23;11.50;;;11.60;99.90;;;;;;5070409;28;20028;-82
2022/04/15 05:00:16;;;;;;;18.30;11.20;;;11.60;99.90;;;;;;5070760;28;20028;-83
2022/04/15 05:02:43;;;;;;;20.00;13.20;;;11.60;99.90;;;;;;5036115;28;20117;-82
2022/04/15 05:05:09;;;;;;;19.27;12.77;;;11.50;99.90;;;;;;5070701;28;20075;-82
2022/04/15 05:07:35;;;;;;;22.50;13.57;;;11.60;99.90;;;;;;5052712;28;20020;-83
2022/04/15 05:10:02;;;;;;;21.57;14.00;;;11.50;99.90;;;;;;5070651;28;20033;-83
2022/04/15 05:12:27;;;;;;;19.83;13.37;;;11.50;99.90;;;;;;5070532;28;20029;-82
2022/04/15 05:14:53;;;;;;;23.03;14.67;;;11.60;99.90;;;;;;5070528;28;20033;-82
2022/04/15 05:17:19;;;;;;;23.80;14.53;;;11.60;99.90;;;;;;5070168;28;20063;-83
2022/04/15 05:19:45;;;;;;;22.33;14.40;;;11.50;99.90;;;;;;5070521;28;20386;-82
2022/04/15 05:22:11;;;;;;;23.47;14.53;;;11.60;99.90;;;;;;5052512;28;20116;-83
2022/04/15 05:24:38;;;;;;;24.10;15.80;;;11.50;99.90;;;;;;5070480;28;20035;-82
2022/04/15 05:27:08;;;;;;;26.57;16.57;;;11.40;99.90;;;;;;5070287;28;20639;-82
2022/04/15 05:29:34;;;;;;;24.97;15.20;;;11.40;99.90;;;;;;5071827;28;20032;-82
2022/04/15 05:32:00;;;;;;;24.70;15.87;;;11.40;99.90;;;;;;5074189;28;20024;-82
2022/04/15 05:34:25;;;;;;;24.90;15.57;;;11.30;99.90;;;;;;5056576;28;20098;-82
2022/04/15 05:36:51;;;;;;;25.03;16.70;;;11.30;99.90;;;;;;5055979;28;20419;-82
2022/04/15 05:39:17;;;;;;;24.50;16.10;;;11.30;99.90;;;;;;5074154;28;20050;-82
2022/04/15 05:41:43;;;;;;;25.37;16.37;;;11.20;99.90;;;;;;5073939;28;20039;-82
2022/04/15 05:44:13;;;;;;;23.87;14.87;;;11.20;99.90;;;;;;5074203;28;20032;-82
2022/04/15 05:46:42;;;;;;;22.60;13.97;;;11.20;99.90;;;;;;5073663;28;20043;-82
2022/04/15 05:49:15;;;;;;;20.25;13.48;;;11.10;99.90;;;;;;5056100;28;20033;-82
2022/04/15 05:51:42;;;;;;;19.23;13.30;;;11.00;99.90;;;;;;5056006;28;20396;-83
2022/04/15 05:54:08;;;;;;;21.17;13.43;;;11.00;99.90;;;;;;5074194;28;20036;-83
2022/04/15 05:56:34;;;;;;;21.50;12.83;;;10.80;99.90;;;;;;5073712;28;20415;-83
2022/04/15 05:59:00;;;;;;;19.97;12.77;;;10.80;99.90;;;;;;5073857;28;20031;-82
2022/04/15 06:01:25;;;;;;;21.27;12.33;;;10.80;99.90;;;;;;5055658;28;20107;-83
2022/04/15 06:03:51;;;;;;;17.57;11.70;;;10.70;99.90;;;;;;5073844;28;20083;-82
2022/04/15 06:06:17;;;;;;;16.23;11.40;;;10.50;99.90;;;;;;5073594;28;20021;-82
2022/04/15 06:08:43;;;;;;;18.37;11.67;;;10.50;99.90;;;;;;5055575;28;20496;-82
2022/04/15 06:11:08;;;;;;;17.63;12.30;;;10.50;99.90;;;;;;5073569;28;20051;-82
2022/04/15 06:13:34;;;;;;;17.83;11.10;;;10.50;99.90;;;;;;5073246;28;20041;-82
2022/04/15 06:16:00;;;;;;;16.03;10.83;;;10.50;99.90;;;;;;5073342;28;20032;-82
2022/04/15 06:18:29;;;;;;;20.40;10.70;;;10.50;99.90;;;;;;5073245;28;20025;-82
2022/04/15 06:20:55;;;;;;;15.98;11.43;;;10.50;99.90;;;;;;5055524;28;20056;-83
2022/04/15 06:23:21;;;;;;;15.97;10.77;;;10.60;99.90;;;;;;5073383;28;20472;-82
2022/04/15 06:25:47;;;;;;;17.13;10.97;;;10.50;99.90;;;;;;5073332;28;20166;-82
2022/04/15 06:28:13;;;;;;;15.63;10.77;;;10.60;99.90;;;;;;5072935;28;20029;-82
2022/04/15 06:30:39;;;;;;;17.17;11.97;;;10.60;99.90;;;;;;5073203;28;20140;-82
2022/04/15 06:33:06;;;;;;;17.60;11.63;;;10.70;99.90;;;;;;5055401;28;20491;-82
2022/04/15 06:35:33;;;;;;;19.00;12.17;;;10.70;99.90;;;;;;5055104;28;20032;-82
2022/04/15 06:37:59;;;;;;;20.40;12.30;;;10.80;99.90;;;;;;5072812;28;20033;-82
2022/04/15 06:40:24;;;;;;;18.73;11.73;;;10.90;99.90;;;;;;5054721;28;20090;-82
2022/04/15 06:42:50;;;;;;;19.63;11.60;;;10.90;99.90;;;;;;5054796;28;20025;-82
2022/04/15 06:45:16;;;;;;;19.63;12.23;;;11.00;99.90;;;;;;5055134;28;20034;-82
2022/04/15 06:47:42;;;;;;;17.33;12.00;;;11.00;99.90;;;;;;5072592;28;20024;-82
2022/04/15 06:50:08;;;;;;;18.57;11.50;;;11.10;99.90;;;;;;5054915;28;20040;-82
2022/04/15 06:52:34;;;;;;;16.13;10.43;;;11.20;99.90;;;;;;5054742;28;20501;-82
2022/04/15 06:54:59;;;;;;;16.33;9.67;;;11.30;99.90;;;;;;5072907;28;20063;-82
2022/04/15 06:57:25;;;;;;;14.43;9.73;;;11.30;99.90;;;;;;5072306;28;20028;-82
2022/04/15 06:59:51;;;;;;;13.27;9.10;;;11.30;99.90;;;;;;5054723;28;20041;-82
2022/04/15 07:02:17;;;;;;;15.00;9.03;;;11.20;99.90;;;;;;5054416;28;20040;-82
2022/04/15 07:04:43;;;;;;;13.33;8.47;;;11.30;99.90;;;;;;5054723;28;20025;-82
2022/04/15 07:07:08;;;;;;;15.93;8.30;;;11.30;99.90;;;;;;5072681;28;20037;-82
2022/04/15 07:09:34;;;;;;;13.33;7.80;;;11.30;99.90;;;;;;5072479;28;20032;-82
2022/04/15 07:12:00;;;;;;;13.07;7.80;;;11.20;99.90;;;;;;5037695;28;20028;-82
2022/04/15 07:14:26;;;;;;;12.23;7.07;;;11.30;99.90;;;;;;5054855;28;20035;-82
2022/04/15 07:16:51;;;;;;;12.87;7.70;;;11.30;99.90;;;;;;5071828;28;20037;-82
2022/04/15 07:19:17;;;;;;;10.37;6.93;;;11.30;99.90;;;;;;5072173;28;20032;-82
2022/04/15 07:21:44;;;;;;;10.60;7.20;;;11.30;99.90;;;;;;5072046;28;20047;-82
2022/04/15 07:24:10;;;;;;;10.33;7.43;;;11.40;99.90;;;;;;5054356;28;20451;-82
2022/04/15 07:26:35;;;;;;;9.80;6.57;;;11.30;99.90;;;;;;5053820;28;20180;-82
2022/04/15 07:29:02;;;;;;;12.00;7.20;;;11.40;99.90;;;;;;5072080;28;20056;-82
2022/04/15 07:31:28;;;;;;;13.80;8.20;;;11.30;99.90;;;;;;5072070;28;20032;-82
2022/04/15 07:33:54;;;;;;;8.60;6.17;;;11.50;99.90;;;;;;5072080;28;20185;-84
2022/04/15 07:39:07;;;;;;;7.90;4.83;;;11.50;99.90;;;;;;5072330;28;20083;-82
2022/04/15 07:41:36;;;;;;;6.87;3.77;;;11.60;99.90;;;;;;5072009;28;20129;-82
2022/04/15 07:44:11;;;;;;;6.77;3.97;;;11.60;99.90;;;;;;5071836;28;20067;-82
2022/04/15 07:46:38;;;;;;;5.37;3.43;;;11.60;99.90;;;;;;5053699;28;20036;-82
2022/04/15 07:49:04;;;;;;;5.33;3.30;;;11.60;99.90;;;;;;5071681;28;20040;-82
2022/04/15 07:51:31;;;;;;;6.40;3.10;;;11.60;99.90;;;;;;5053251;28;20024;-83
2022/04/15 07:53:57;;;;;;;6.10;3.40;;;11.70;99.90;;;;;;5053732;28;20107;-83
2022/04/15 07:56:22;;;;;;;8.37;4.07;;;11.80;99.90;;;;;;5053586;28;20120;-82
2022/04/15 07:58:50;;;;;;;6.87;3.00;;;11.90;99.90;;;;;;5071334;28;20040;-83
2022/04/15 08:01:17;;;;;;;5.83;2.83;;;11.90;99.90;;;;;;5053445;28;20085;-83
2022/04/15 08:03:43;;;;;;;5.50;3.30;;;12.00;99.90;;;;;;5053278;28;20028;-83
2022/04/15 08:06:09;;;;;;;4.90;3.07;;;12.00;99.90;;;;;;5053476;28;20568;-83
2022/04/15 08:08:35;;;;;;;6.40;3.20;;;12.20;99.90;;;;;;5036604;28;20016;-83
2022/04/15 08:11:01;;;;;;;5.47;3.40;;;12.20;99.90;;;;;;5071359;28;20384;-82
2022/04/15 08:13:27;;;;;;;5.67;3.07;;;12.30;99.90;;;;;;5053348;28;20032;-82
2022/04/15 08:15:53;;;;;;;7.47;3.40;;;12.30;99.90;;;;;;5071278;28;20055;-83
2022/04/15 08:18:20;;;;;;;11.77;5.77;;;12.30;99.90;;;;;;5053006;28;20445;-82
2022/04/15 08:20:46;;;;;;;9.13;4.70;;;12.30;99.90;;;;;;5071028;28;20024;-82
2022/04/15 08:23:13;;;;;;;6.93;3.63;;;12.30;99.90;;;;;;5053216;28;20028;-83
2022/04/15 08:25:38;;;;;;;9.93;4.47;;;12.20;99.90;;;;;;5071065;28;20111;-82
2022/04/15 08:28:05;;;;;;;7.67;3.63;;;12.30;99.90;;;;;;5085085;22;20128;-83
2022/04/15 08:30:34;;;;;;;9.03;3.70;;;12.20;99.90;;;;;;5070935;28;20473;-83
2022/04/15 08:33:02;;;;;;;;;;;12.20;99.90;;;;;;5071259;28;20040;-83
2022/04/15 08:35:29;;;;;;;6.17;3.33;;;12.20;99.90;;;;;;5071027;28;19904;-83
2022/04/15 08:37:54;;;;;;;5.80;3.47;;;12.20;99.90;;;;;;5070596;28;20028;-83
2022/04/15 08:40:20;;;;;;;6.53;3.70;;;12.20;99.90;;;;;;5070967;28;20032;-83
2022/04/15 08:42:46;;;;;;;7.53;3.40;;;12.20;99.90;;;;;;5070616;28;20503;-83
2022/04/15 08:45:16;;;;;;;10.60;4.50;;;12.30;99.90;;;;;;5071381;28;20036;-83
2022/04/15 08:47:42;;;;;;;6.13;4.10;;;12.20;99.90;;;;;;5070318;28;20170;-83
2022/04/15 08:50:13;;;;;;;7.77;4.10;;;12.20;99.90;;;;;;5070828;28;20448;-83
2022/04/15 08:52:40;;;;;;;8.47;3.87;;;12.10;99.90;;;;;;5052893;28;20464;-83
2022/04/15 08:55:06;;;;;;;7.20;4.00;;;12.00;99.90;;;;;;5052931;28;20033;-83
2022/04/15 08:57:32;;;;;;;8.47;4.87;;;11.90;99.90;;;;;;5052545;28;20392;-83
2022/04/15 08:59:59;;;;;;;8.03;4.20;;;11.90;99.90;;;;;;5052786;28;20106;-83
2022/04/15 09:02:33;;;;;;;5.80;3.97;;;11.90;99.90;;;;;;5070271;28;20036;-83
2022/04/15 09:05:00;;;;;;;8.43;3.87;;;12.00;99.90;;;;;;5074499;28;20615;-83
2022/04/15 09:07:30;;;;;;;7.63;4.57;;;12.10;99.90;;;;;;5056648;28;20492;-83
2022/04/15 09:09:57;;;;;;;8.00;4.80;;;12.10;99.90;;;;;;5074779;28;20032;-83
2022/04/15 09:12:28;;;;;;;6.67;4.40;;;12.20;99.90;;;;;;5074628;28;20215;-83
2022/04/15 09:14:58;;;;;;;9.17;4.37;;;12.20;99.90;;;;;;5056802;28;20102;-83
2022/04/15 09:17:26;;;;;;;7.33;4.00;;;12.20;99.90;;;;;;5074346;28;20033;-83
2022/04/15 09:19:52;;;;;;;7.83;3.97;;;12.20;99.90;;;;;;5074482;28;20028;-83
2022/04/15 09:22:18;;;;;;;8.47;4.40;;;12.20;99.90;;;;;;5056393;28;20032;-83
2022/04/15 09:24:46;;;;;;;7.27;4.00;;;12.30;99.90;;;;;;5074393;28;20035;-83
2022/04/15 09:27:11;;;;;;;6.80;3.63;;;12.20;99.90;;;;;;5073952;28;20114;-83
2022/04/15 09:29:39;;;;;;;8.47;4.20;;;12.20;99.90;;;;;;5074334;28;20055;-83
2022/04/15 09:32:09;;;;;;;7.23;4.23;;;12.20;99.90;;;;;;5074078;28;20511;-83
2022/04/15 09:34:58;;;;;;;9.70;4.60;;;12.30;99.90;;;;;;5056257;28;20043;-83
2022/04/15 09:37:27;;;;;;;7.82;5.15;;;12.30;99.90;;;;;;5073982;28;20119;-83
2022/04/15 09:40:05;;;;;;;8.77;4.82;;;12.30;99.90;;;;;;5056367;28;20041;-83
2022/04/15 09:42:34;;;;;;;8.07;5.03;;;12.30;99.90;;;;;;5073832;28;20085;-83
2022/04/15 09:45:24;;;;;;;6.93;4.73;;;12.30;99.90;;;;;;5074097;28;20027;-83
2022/04/15 09:48:01;;;;;;;7.20;4.90;;;12.30;99.90;;;;;;5073681;28;20541;-83
2022/04/15 09:50:44;;;;;;;8.47;5.27;;;12.30;99.90;;;;;;5074061;28;20020;-83
2022/04/15 09:53:18;;;;;;;9.23;4.73;;;12.40;99.90;;;;;;5073885;28;20029;-83
2022/04/15 09:55:46;;;;;;;6.33;4.40;;;12.40;99.90;;;;;;5073909;28;20056;-83
2022/04/15 09:58:13;;;;;;;8.47;5.00;;;12.30;99.90;;;;;;5055785;28;20095;-82
2022/04/15 10:00:40;;;;;;;9.07;5.20;;;12.30;99.90;;;;;;5073424;28;20035;-82
2022/04/15 10:03:14;;;;;;;9.37;5.83;;;12.30;99.90;;;;;;5071734;28;20025;-82
2022/04/15 10:05:42;;;;;;;9.53;6.57;;;12.30;99.90;;;;;;5073906;28;20024;-85
2022/04/15 10:08:09;;;;;;;11.10;6.33;;;12.20;99.90;;;;;;5038682;28;20115;-86
2022/04/15 10:10:36;;;;;;;10.57;6.87;;;12.20;99.90;;;;;;5073597;28;20400;-81
2022/04/15 10:13:04;;;;;;;12.30;9.00;;;12.30;99.90;;;;;;5073383;28;20449;-82
2022/04/15 10:15:32;;;;;;;12.27;8.27;;;12.30;99.90;;;;;;5072973;28;20357;-82
2022/04/15 10:18:02;;;;;;;8.00;6.67;;;12.20;99.90;;;;;;5073006;28;20028;-81
2022/04/15 10:20:29;;;;;;;8.80;6.20;;;12.10;99.90;;;;;;5055542;28;20033;-82
2022/04/15 10:23:06;;;;;;;9.03;6.00;;;12.20;99.90;;;;;;5055233;28;20025;-81
2022/04/15 10:25:36;;;;;;;6.10;4.87;;;12.10;99.90;;;;;;5073155;28;20025;-83
2022/04/15 10:28:06;;;;;;;7.27;4.43;;;12.20;99.90;;;;;;5055015;28;20040;-82
2022/04/15 10:30:32;;;;;;;10.03;4.97;;;12.10;99.90;;;;;;5055357;28;20095;-82
2022/04/15 10:32:57;;;;;;;9.10;5.03;;;12.10;99.90;;;;;;5072906;28;20025;-82
2022/04/15 10:35:28;;;;;;;7.60;4.70;;;12.10;99.90;;;;;;5073088;28;20024;-81
2022/04/15 10:37:56;;;;;;;17.17;11.23;;;12.20;99.90;;;;;;5072714;28;20508;-82
2022/04/15 10:40:30;;;;;;;14.17;9.60;;;12.30;99.90;;;;;;5055154;28;20024;-82
2022/04/15 10:43:28;;;;;;;9.93;6.90;;;12.20;99.90;;;;;;5038195;28;20063;-81
2022/04/15 10:46:15;;;;;;;13.67;8.40;;;12.30;99.90;;;;;;5044366;28;20040;-81
2022/04/15 10:48:42;;;;;;;11.03;7.33;;;12.20;99.90;;;;;;5072545;28;20058;-81
2022/04/15 10:51:27;;;;;;;8.93;6.13;;;12.20;99.90;;;;;;5072975;28;20496;-86
2022/04/15 10:53:53;;;;;;;12.43;6.93;;;12.20;99.90;;;;;;5073097;28;20117;-80
2022/04/15 10:56:21;;;;;;;13.73;10.03;;;12.30;99.90;;;;;;5072412;28;20396;-79
2022/04/15 11:01:50;;;;;;;14.40;10.50;;;12.40;99.90;;;;;;5072378;28;20130;-78
2022/04/15 11:04:24;;;;;;;13.80;10.77;;;12.50;99.90;;;;;;5072562;28;20060;-78
2022/04/15 11:06:51;;;;;;;14.80;11.70;;;12.50;99.90;;;;;;5072229;28;20028;-78
2022/04/15 11:09:21;;;;;;;15.10;10.40;;;12.50;99.90;;;;;;5072153;28;20039;-86
2022/04/15 11:11:51;;;;;;;9.50;7.27;;;12.50;99.90;;;;;;5054040;28;20396;-85
2022/04/15 11:14:17;;;;;;;10.60;7.30;;;12.60;99.90;;;;;;5054364;28;20162;-87
2022/04/15 11:16:53;;;;;;;10.57;7.20;;;12.60;99.90;;;;;;5054250;28;20495;-78
2022/04/15 11:19:26;;;;;;;8.80;6.73;;;12.60;99.90;;;;;;5072295;28;20174;-78
2022/04/15 11:21:53;;;;;;;13.40;9.37;;;12.50;99.90;;;;;;5071873;28;20033;-78
2022/04/15 11:24:45;;;;;;;14.27;10.80;;;12.60;99.90;;;;;;5072178;28;20150;-78
2022/04/15 11:27:14;;;;;;;15.50;12.23;;;12.60;99.90;;;;;;5049858;28;20056;-78
2022/04/15 11:29:40;;;;;;;17.83;13.10;;;12.70;99.90;;;;;;5071982;28;20021;-78
2022/04/15 11:32:07;;;;;;;17.17;13.10;;;12.70;99.90;;;;;;5071805;28;20040;-78
2022/04/15 11:34:34;;;;;;;13.37;11.03;;;12.60;99.90;;;;;;5071958;28;20024;-79
2022/04/15 11:37:05;;;;;;;13.87;10.60;;;12.60;99.90;;;;;;5071793;28;20043;-78
2022/04/15 11:39:36;;;;;;;14.93;11.67;;;12.70;99.90;;;;;;5071917;28;20689;-78
2022/04/15 11:42:09;;;;;;;15.43;11.37;;;12.60;99.90;;;;;;5070305;28;20041;-78
2022/04/15 11:44:35;;;;;;;15.53;11.70;;;12.70;99.90;;;;;;5071514;28;20032;-78
2022/04/15 11:47:16;;;;;;;16.97;12.17;;;12.70;99.90;;;;;;5071497;28;20029;-78
2022/04/15 11:49:43;;;;;;;16.73;13.60;;;12.70;99.90;;;;;;5071674;28;20028;-78
2022/04/15 11:52:09;;;;;;;16.10;13.48;;;12.70;99.90;;;;;;5071580;28;20099;-77
2022/04/15 11:54:38;;;;;;;15.48;12.10;;;12.70;99.90;;;;;;5053672;28;20029;-78
2022/04/15 11:57:05;;;;;;;13.27;11.10;;;12.80;99.90;;;;;;5071363;28;20048;-78
2022/04/15 11:59:39;;;;;;;13.52;10.77;;;12.80;99.90;;;;;;5071679;28;20028;-78
2022/04/15 12:02:05;;;;;;;15.32;11.50;;;12.80;99.90;;;;;;5071509;28;20036;-78
2022/04/15 12:04:31;;;;;;;16.77;13.30;;;12.80;99.90;;;;;;5071658;28;20025;-78
2022/04/15 12:06:57;;;;;;;16.42;13.88;;;12.80;99.90;;;;;;5072147;28;20093;-78
2022/04/15 12:09:24;;;;;;;18.13;13.80;;;12.90;99.60;;;;;;5071675;28;20496;-78
2022/04/15 12:11:51;;;;;;;17.30;13.80;;;13.00;99.80;;;;;;5071391;28;20040;-78
2022/04/15 12:14:18;;;;;;;14.20;12.45;;;13.00;99.90;;;;;;5071635;28;20033;-78
2022/04/15 12:16:45;;;;;;;14.98;12.63;;;13.00;99.90;;;;;;5070119;28;20032;-78
2022/04/15 12:19:11;;;;;;;17.98;14.73;;;13.10;99.70;;;;;;5071703;28;20118;-79
2022/04/15 12:21:38;;;;;;;16.92;14.68;;;13.10;99.30;;;;;;5071295;28;20499;-79
2022/04/15 12:24:19;;;;;;;18.00;14.45;;;13.10;99.10;;;;;;5071410;28;20063;-80
2022/04/15 12:26:46;;;;;;;17.17;14.25;;;13.00;99.00;;;;;;5070855;28;20051;-79
2022/04/15 12:32:24;;;;;;;18.55;14.52;;;13.00;99.40;;;;;;5070984;28;20071;-82
2022/04/15 12:35:10;;;;;;;15.90;13.20;;;13.10;99.60;;;;;;5052902;28;20032;-81
2022/04/15 12:37:41;;;;;;;17.85;14.07;;;13.10;99.50;;;;;;5069180;28;20381;-79
2022/04/15 12:40:14;;;;;;;16.33;13.82;;;13.10;99.20;;;;;;5070797;28;20344;-81
2022/04/15 12:42:42;;;;;;;16.42;13.48;;;13.00;99.30;;;;;;5036092;28;20508;-82
2022/04/15 12:45:17;;;;;;;16.25;13.32;;;13.10;99.50;;;;;;5070736;28;20035;-82
2022/04/15 12:47:46;;;;;;;16.45;13.00;;;13.20;99.40;;;;;;5070707;28;20491;-80